batteryspace.com alexa rank chart, batteryspace.com alexa rank daily changes

batteryspace.com alexa rank chart, batteryspace.com alexa rank daily changes

batteryspace.com
Actual rank:
137 804

RANK HISTORY

Date Rank Diff
2017/05/25 137 804 +1 624
2017/05/24 136 180 +431
2017/05/23 135 749 -2 204
2017/05/22 137 953 -1 097
2017/05/21 139 050 -232
2017/05/20 139 282 -317
2017/05/19 139 599 -3 491
2017/05/18 143 090 +3 244
2017/05/17 139 846 +1 398
2017/05/16 138 448 +520
2017/05/15 137 928 -2 157
2017/05/14 140 085 +654
2017/05/13 139 431 -749
2017/05/12 140 180 +3 861
2017/05/11 136 319 -777
2017/05/10 137 096 -23
2017/05/09 137 119 -753
2017/05/08 137 872 -401
2017/05/07 138 273 +2 176
2017/05/06 136 097 +435
2017/05/05 135 662 +683
2017/05/04 134 979 -1 736
2017/05/03 136 715 -965
2017/05/02 137 680 +5 901
2017/05/01 131 779 +6 343
2017/04/30 125 436 -1 101
2017/04/29 126 537 +1 349
2017/04/28 125 188 -3 277
2017/04/27 128 465 +114
2017/04/26 128 351 -474
2017/04/25 128 825 -1 132
2017/04/24 129 957 -1 137
2017/04/23 131 094 +223
2017/04/22 130 871 +227
2017/04/21 130 644 +179
2017/04/20 130 465 +2 293
2017/04/19 128 172 -2 318
2017/04/18 130 490 -918
2017/04/17 131 408 -1 803
2017/04/16 133 211 -978
2017/04/15 134 189 +2 188
2017/04/14 132 001 -25
2017/04/13 132 026 -735
2017/04/12 132 761 -727
2017/04/11 133 488 +1 971
2017/04/10 131 517 -1 948
2017/04/09 133 465 +1 455
2017/04/08 132 010 -1 031
2017/04/07 133 041 -828
2017/04/06 133 869 +5 218
2017/04/05 128 651 -2 207
2017/04/04 130 858 +2 394
2017/04/03 128 464 +1 160
2017/04/02 127 304 -6 233
2017/04/01 133 537 -6 121
2017/03/31 139 658 +240
2017/03/30 139 418 +2 080
2017/03/29 137 338 -1 108
2017/03/28 138 446 +68
2017/03/27 138 378 -337
2017/03/26 138 715

WIDGET FOR YOUR SITE

DOMAINS WITH THE NEAREST RANK

Domain Rank
dhpay.com 137 799
bakalavr-magistr.ru 137 800
allmovie.tv 137 801
fusetools.com 137 802
vbcity.com 137 803
batteryspace.com 137 804
pothys.com 137 805
pennypop.com 137 806
courdecassation.fr 137 807
avi1.ru 137 808
erstecardclub.hr 137 809

DOMAINS WITH THE NEAREST RANK BY TLD .com

Domain Rank
btyingtao.com 137 793
endless-space.com 137 794
dhpay.com 137 799
fusetools.com 137 802
vbcity.com 137 803
batteryspace.com 137 804
pothys.com 137 805
pennypop.com 137 806
badassoftheweek.com 137 812
ixfplay.com 137 813
sailpoint.com 137 814